航空気象通報

ウインドサーファーのための航空気象通報による風予報です。

10/30-11/1の航空気象通報

2018年10月30日 22時43分30秒 | お天気
羽田空港
TAF RJTT 301105Z 3012/3118 35012KT 9999 FEW030 SCT060
BECMG 3100/3103 16010KT
BECMG 3106/3109 35014KT
日本時間30日21時-31日09時:350度から12ノットの風
09-12時:風が変化
12-15時:160度から10ノットの風
15-18時:風が変化
18時-1日03時:350度から14ノットの風


静岡空港
TAF RJNS 301107Z 3012/3118 26012KT 9999 FEW030
TEMPO 3103/3106 26018G28KT
日本時間30日21時-1日03時:260度から12ノットの風
但し、31日12-15時の間:時々260度から18ノット、突風28ノット


福岡空港
TAF RJFF 301105Z 3012/3118 31008KT 9999 FEW030 SCT040
BECMG 3016/3018 15005KT
BECMG 3100/3103 34012KT
BECMG 3109/3112 15006KT
日本時間30日21時-31日01時:310度から8ノットの風
01-03時:風が変化
03-09時:150度から5ノットの風
09-12時:風が変化
12-18時:340度から12ノットの風
18-21時:風が変化
21時-1日03時:150度から6ノットの風


那覇空港
TAF ROAH 301108Z 3012/3118 04012KT 9999 FEW030 SCT040
TEMPO 3109/3115 4000 SHRA
日本時間30日21時-1日03時:040度から12ノットの風

但し、31日18-24時の間:時々

石垣空港
TAF ROIG 301111Z 3012/3118 06020KT 9999 FEW010 BKN020
TEMPO 3106/3112 05028G38KT 4000 SHRA
TEMPO 3112/3118 05028G38KT
日本時間30日21時-1日03時:060度から20ノットの風
但し、31日15時-1日03時の間:時々050度から28ノット、突風38ノット

但し、31日15-21時の間:時々

マウイのカフルイ空港
PHOG 301135Z 3012/3112 14005KT P6SM FEW030 SCT050 BKN100
FM302100 19015G23KT P6SM VCSH SCT025 BKN040
FM310400 19008KT P6SM VCSH SCT025 BKN040 AMD LTD TO VIS AND WIND TIL 301600
ハワイ時間30日02-11時:140度から5ノットの風
11-18時:190度から15ノット、突風23ノット
18時-31日02時:190度から8ノットの風


サイパン空港
PGSN 301125Z 3012/3112 09011KT P6SM FEW018 SCT035 AMD NOT SKED
マリアナ時間30日22時-31日22時:090度から11ノットの風

コメント

10/29-10/31の航空気象通報

2018年10月29日 22時27分06秒 | お天気
羽田空港
TAF RJTT 291107Z 2912/3018 30006KT 9999 FEW030
BECMG 3000/3003 18012KT
BECMG 3009/3012 34012KT
日本時間29日21時-30日09時:300度から6ノットの風
09-12時:風が変化
12-18時:180度から12ノットの風
18-21時:風が変化
21時-31日03時:340度から12ノットの風


静岡空港
TAF RJNS 291105Z 2912/3018 27009KT 9999 FEW020
TEMPO 3000/3006 26020G30KT
日本時間29日21時-31日03時:270度から9ノットの風
但し、30日09-15時の間:時々260度から20ノット、突風30ノット


福岡空港
TAF RJFF 291105Z 2912/3018 18005KT 9999 FEW020 BKN040
BECMG 2914/2916 28011KT
BECMG 3015/3018 14004KT
日本時間29日21-23時:180度から5ノットの風
23時-30日01時:風が変化
01-24時:280度から11ノットの風
31日00-03時:風が変化
03時:140度から4ノットの風


那覇空港
TAF ROAH 291110Z 2912/3018 04009KT 9999 FEW030
日本時間29日21時-31日03時:040度から9ノットの風


石垣空港
TAF ROIG 291111Z 2912/3018 04019KT 9999 FEW025
日本時間29日21時-31日03時:040度から19ノットの風


マウイのカフルイ空港
PHOG 291130Z 2912/3012 13005KT P6SM FEW030 SCT050
FM292100 08010G17KT P6SM FEW030 SCT050 BKN250
FM300400 17007KT P6SM FEW030 SCT050 BKN250
FM301000 18012KT P6SM VCSH SCT030 BKN050 AMD LTD TO VIS AND WIND TIL 291600
ハワイ時間29日02-11時:130度から5ノットの風

11-18時:080度から10ノット、突風17ノット
18-24時:170度から7ノットの風
30日00-02時:180度から12ノットの風


サイパン空港
PGSN 291132Z 2912/3012 12005KT P6SM FEW018 SCT035 AMD NOT SKED
マリアナ時間29日22時-30日22時:120度から5ノットの風
コメント

10/28-10/30の航空気象通報

2018年10月28日 22時41分25秒 | お天気
羽田空港
TAF RJTT 281105Z 2812/2918 12010KT 9999 FEW030
BECMG 2813/2815 18010KT
BECMG 2816/2818 25008KT
BECMG 2821/2823 23006KT
BECMG 2900/2903 20016KT
BECMG 2909/2912 28008KT
日本時間28日21-22時:120度から10ノットの風
22-24時:風が変化
29日00-01時:180度から10ノットの風
01-03時:風が変化
03-06時:250度から8ノットの風
06-08時:風が変化
08-09時:230度から6ノットの風
09-12時:風が変化
12-18時:200度から16ノットの風
18-21時:風が変化
21時-30日03時:280度から8ノットの風


静岡空港
TAF RJNS 281105Z 2812/2918 26010KT 9999 FEW020
TEMPO 2900/2906 25020G30KT
日本時間28日21時-30日03時:260度から10ノットの風
但し、29日09-15時の間:時々250度から20ノット、突風30ノット


福岡空港
TAF RJFF 281108Z 2812/2918 17007KT 9999 FEW030
BECMG 2819/2821 30006KT
BECMG 2906/2909 18008KT
BECMG 2912/2915 31012KT
日本時間28日21時-29日04時:170度から7ノットの風
04-06時:風が変化
06-15時:300度から6ノットの風
15-18時:風が変化
18-21時:180度から8ノットの風
21-24時:風が変化
30日00-03時:310度から12ノットの風


那覇空港
TAF ROAH 281105Z 2812/2918 03012KT 9999 FEW035
日本時間28日21時-30日03時:030度から12ノットの風


石垣空港
TAF ROIG 281106Z 2812/2918 03018KT 9999 FEW035
日本時間28日21時-30日03時:030度から18ノットの風


マウイのカフルイ空港
PHOG 281128Z 2812/2912 08009KT P6SM VCSH FEW030 BKN045
FM282000 07015G23KT P6SM SCT030 SCT050
FM290500 06009KT P6SM VCSH FEW030 SCT045 AMD LTD TO VIS AND WIND TIL 281600
ハワイ時間28日02-10時:080度から9ノットの風

10-19時:070度から15ノット、突風23ノット
19時-29日02時:060度から9ノットの風


サイパン空港
PGSN 281139Z 2812/2912 05005KT P6SM VCSH FEW015 SCT035 BKN050
TEMPO 2815/2819 5SM SHRA BKN015 AMD NOT SKED
マリアナ時間28日22時-29日22時:050度から5ノットの風

但し、29日01-05時の間:時々
コメント

10/27-10/29の航空気象通報

2018年10月27日 23時00分51秒 | お天気
羽田空港
TAF RJTT 271108Z 2712/2818 35010KT 9999 FEW020 SCT040
BECMG 2800/2803 10006KT
BECMG 2803/2806 18012KT
日本時間27日21時-28日09時:350度から10ノットの風
09-12時21日03時:360度から11ノットの風

但し、20日15-18時の間:時々

静岡空港
TAF RJNS 271107Z 2712/2818 26012KT 9999 FEW020
日本時間27日21時-29日03時:260度から12ノットの風


福岡空港
TAF RJFF 271107Z 2712/2818 21004KT 9999 FEW030 SCT040
BECMG 2721/2723 27010KT
BECMG 2806/2809 18008KT
日本時間27日21時-28日06時:210度から4ノットの風
06-08時:風が変化
08-15時:270度から10ノットの風
15-18時:風が変化
18時-29日03時:180度から8ノットの風


那覇空港
TAF ROAH 271105Z 2712/2818 02020KT 9999 FEW030 SCT040
日本時間27日21時-29日03時:020度から20ノットの風


石垣空港
TAF ROIG 271106Z 2712/2818 02016KT 9999 FEW030 SCT040
TEMPO 2712/2809 02022G32KT
日本時間27日21時-29日03時:020度から16ノットの風
但し、27日21時-28日18時の間:時々020度から22ノット、突風32ノット


マウイのカフルイ空港
PHOG 271120Z 2712/2812 04009KT P6SM VCSH FEW030 SCT050
FM272100 05016G22KT P6SM FEW025 SCT050
FM280500 06013KT P6SM VCSH SCT030 BKN050 AMD LTD TO VIS AND WIND TIL 271600
ハワイ時間27日02-11時:040度から9ノットの風
11-19時:050度から16ノット、突風22ノット

19時-28日02時:060度から13ノットの風


サイパン空港
PGSN 271132Z 2712/2812 11010KT P6SM VCSH FEW015 SCT035 AMD NOT SKED
マリアナ時間27日22時-28日22時:110度から10ノットの風

コメント

10/26-10/28の航空気象通報

2018年10月27日 01時04分14秒 | お天気
羽田空港
TAF RJTT 261106Z 2612/2718 16012KT 9999 FEW020 SCT040
BECMG 2622/2700 21024KT
TEMPO 2700/2703 21030G40KT 3000 SHRA BR
TEMPO 2703/2709 21026G36KT
BECMG 2709/2712 35010KT
日本時間26日21時-27日07時:160度から12ノットの風
07-09時:風が変化
09-18時:210度から24ノットの風
但し、09-12時の間:時々210度から30ノット、突風40ノット
但し、12-18時の間:時々210度から26ノット、突風36ノット
18-21時:風が変化
21時-28日03時:350度から10ノットの風

但し、09-12時の間:時々

静岡空港
TAF RJNS 261106Z 2612/2718 35006KT 8000 FEW005 BKN015
TEMPO 2615/2620 FEW003 BKN005
BECMG 2619/2621 20008KT
TEMPO 2623/2700 3000 TSRA BR FEW005 BKN008 FEW015CB
BECMG 2700/2703 26020KT
TEMPO 2700/2703 26024G36KT 3000 TSRA BR FEW005 BKN008 FEW015CB
日本時間26日21時-27日04時:350度から6ノットの風
04-06時:風が変化
06-09時:200度から8ノットの風
09-12時:風が変化
12時-28日03時:260度から20ノットの風
但し、27日09-12時の間:時々260度から24ノット、突風36ノット

但し、27日08-09時の間:時々
但し、27日09-12時の間:時々

福岡空港
TAF RJFF 261106Z 2612/2718 29012KT 9999 FEW030 SCT040
TEMPO 2612/2613 26015G25KT 3000 TSRA BR FEW008 SCT015 BKN020 FEW025CB
TEMPO 2613/2615 28015G25KT
日本時間26日21時-28日03時:290度から12ノットの風
但し、26日21-22時の間:時々260度から15ノット、突風25ノット
但し、26日22-24時の間:時々280度から15ノット、突風25ノット

但し、26日21-22時の間:時々

那覇空港
TAF ROAH 261107Z 2612/2718 36008KT 9999 SCT025 BKN045
BECMG 2622/2700 01020KT
日本時間26日21時-27日07時:360度から8ノットの風
07-09時:風が変化
09時-28日03時:010度から20ノットの風


石垣空港
TAF ROIG 261111Z 2612/2718 01008KT 9999 SCT020 BKN035
BECMG 2621/2623 01018KT
TEMPO 2621/2706 01020G30KT
日本時間26日21時-27日06時:010度から8ノットの風
06-08時:風が変化
08時-28日03時:010度から18ノットの風
但し、27日06-15時の間:時々010度から20ノット、突風30ノット


マウイのカフルイ空港
PHOG 261120Z 2612/2712 05011KT P6SM VCSH FEW030 SCT050
FM261900 05017G26KT P6SM FEW030 SCT050
FM270400 05013KT P6SM VCSH FEW030 SCT050
FM270900 04009KT P6SM VCSH FEW030 SCT050 AMD LTD TO VIS AND WIND TIL 26160000
ハワイ時間26日02-09時:050度から11ノットの風
09-18時:050度から17ノット、突風26ノット
18-21時:050度から13ノットの風
21時-27日02時:040度から9ノットの風


サイパン空港
PGSN 261137Z 2612/2712 14014KT P6SM VCSH FEW015 SCT030 AMD NOT SKED
マリアナ時間26日22時-27日22時:140度から14ノットの風

コメント